Ashland, Oregon
Current Conditions -  °F | °C
As of 9:07 AM on Thursday 27 Nov 2014 (Local Time) from KMFR Reporting Station
Moderate Fog Moderate Fog  
Wind Chill:   Ceiling: 200
Heat Index:   Visibility: 0.5mi
Dew Point:   Wind: 3mph
Humidity: 100%   Direction: 350°N
Pressure: 30.1"   Gusts: NA
Location:  42.2°N, 122.71°W
Report Text: KMFR 271707Z 35003KT 1/2SM FG OVC002 08/08 A3010 RMK AO2 T00780078 RVRNO
Loading
Personal Weather Stations






























Interactive Weather Map New forecast layout! Learn more

10-Day Weather Forecast

Advertisements
Track Severe Weather on mobile